sensor_id;sensor_type;location;lat;lon;timestamp;P1;durP1;ratioP1;P2;durP2;ratioP2
9783;SDS011;4931;44.874;-1.092;2024-01-30T00:01:18;26.15;;;9.20;;
9783;SDS011;4931;44.874;-1.092;2024-01-30T00:03:44;22.73;;;8.50;;
9783;SDS011;4931;44.874;-1.092;2024-01-30T00:06:09;23.50;;;8.82;;
9783;SDS011;4931;44.874;-1.092;2024-01-30T00:08:35;22.95;;;8.73;;
9783;SDS011;4931;44.874;-1.092;2024-01-30T00:11:00;21.77;;;7.93;;
9783;SDS011;4931;44.874;-1.092;2024-01-30T00:13:26;16.55;;;7.60;;
9783;SDS011;4931;44.874;-1.092;2024-01-30T00:15:52;19.20;;;7.40;;
9783;SDS011;4931;44.874;-1.092;2024-01-30T00:18:17;19.52;;;7.95;;
9783;SDS011;4931;44.874;-1.092;2024-01-30T00:20:43;17.98;;;7.32;;
9783;SDS011;4931;44.874;-1.092;2024-01-30T00:23:09;19.23;;;8.00;;
9783;SDS011;4931;44.874;-1.092;2024-01-30T00:25:34;15.90;;;7.20;;
9783;SDS011;4931;44.874;-1.092;2024-01-30T00:28:00;17.90;;;7.53;;
9783;SDS011;4931;44.874;-1.092;2024-01-30T00:30:26;16.67;;;7.32;;
9783;SDS011;4931;44.874;-1.092;2024-01-30T00:32:51;19.90;;;7.55;;
9783;SDS011;4931;44.874;-1.092;2024-01-30T00:35:17;19.25;;;7.57;;
9783;SDS011;4931;44.874;-1.092;2024-01-30T00:37:42;15.35;;;6.90;;
9783;SDS011;4931;44.874;-1.092;2024-01-30T00:40:08;16.40;;;7.75;;
9783;SDS011;4931;44.874;-1.092;2024-01-30T00:42:35;14.52;;;7.28;;
9783;SDS011;4931;44.874;-1.092;2024-01-30T00:45:01;19.90;;;7.80;;
9783;SDS011;4931;44.874;-1.092;2024-01-30T00:47:26;16.45;;;7.15;;
9783;SDS011;4931;44.874;-1.092;2024-01-30T00:49:52;23.77;;;8.43;;
9783;SDS011;4931;44.874;-1.092;2024-01-30T00:52:17;26.65;;;9.70;;
9783;SDS011;4931;44.874;-1.092;2024-01-30T00:54:43;20.85;;;8.48;;
9783;SDS011;4931;44.874;-1.092;2024-01-30T00:57:08;15.10;;;7.95;;
9783;SDS011;4931;44.874;-1.092;2024-01-30T00:59:34;18.00;;;7.60;;
9783;SDS011;4931;44.874;-1.092;2024-01-30T01:01:59;17.77;;;7.80;;
9783;SDS011;4931;44.874;-1.092;2024-01-30T01:04:25;18.92;;;7.70;;
9783;SDS011;4931;44.874;-1.092;2024-01-30T01:06:51;16.88;;;7.85;;
9783;SDS011;4931;44.874;-1.092;2024-01-30T01:09:17;25.58;;;8.07;;
9783;SDS011;4931;44.874;-1.092;2024-01-30T01:11:43;20.98;;;8.40;;
9783;SDS011;4931;44.874;-1.092;2024-01-30T01:14:08;19.20;;;8.13;;
9783;SDS011;4931;44.874;-1.092;2024-01-30T01:16:34;18.50;;;8.10;;
9783;SDS011;4931;44.874;-1.092;2024-01-30T01:18:59;14.55;;;7.18;;
9783;SDS011;4931;44.874;-1.092;2024-01-30T01:21:25;22.00;;;7.95;;
9783;SDS011;4931;44.874;-1.092;2024-01-30T01:23:51;25.92;;;8.70;;
9783;SDS011;4931;44.874;-1.092;2024-01-30T01:26:16;19.88;;;8.27;;
9783;SDS011;4931;44.874;-1.092;2024-01-30T01:28:41;22.10;;;7.70;;
9783;SDS011;4931;44.874;-1.092;2024-01-30T01:31:07;18.92;;;8.18;;
9783;SDS011;4931;44.874;-1.092;2024-01-30T01:33:33;14.55;;;7.78;;
9783;SDS011;4931;44.874;-1.092;2024-01-30T01:35:59;22.38;;;7.97;;
9783;SDS011;4931;44.874;-1.092;2024-01-30T01:38:27;20.08;;;8.07;;
9783;SDS011;4931;44.874;-1.092;2024-01-30T01:40:53;19.95;;;8.18;;
9783;SDS011;4931;44.874;-1.092;2024-01-30T01:43:18;19.23;;;8.02;;
9783;SDS011;4931;44.874;-1.092;2024-01-30T01:45:44;22.15;;;9.18;;
9783;SDS011;4931;44.874;-1.092;2024-01-30T01:48:10;23.05;;;8.80;;
9783;SDS011;4931;44.874;-1.092;2024-01-30T01:50:37;22.13;;;10.00;;
9783;SDS011;4931;44.874;-1.092;2024-01-30T01:53:04;28.25;;;11.98;;
9783;SDS011;4931;44.874;-1.092;2024-01-30T01:55:32;22.88;;;10.00;;
9783;SDS011;4931;44.874;-1.092;2024-01-30T01:57:58;24.13;;;9.57;;
9783;SDS011;4931;44.874;-1.092;2024-01-30T02:00:24;19.15;;;7.85;;
9783;SDS011;4931;44.874;-1.092;2024-01-30T02:02:49;16.45;;;8.23;;
9783;SDS011;4931;44.874;-1.092;2024-01-30T02:05:16;17.13;;;7.72;;
9783;SDS011;4931;44.874;-1.092;2024-01-30T02:07:43;20.40;;;8.07;;
9783;SDS011;4931;44.874;-1.092;2024-01-30T02:10:09;19.48;;;8.10;;
9783;SDS011;4931;44.874;-1.092;2024-01-30T02:12:37;20.48;;;9.10;;
9783;SDS011;4931;44.874;-1.092;2024-01-30T02:15:03;19.42;;;9.20;;
9783;SDS011;4931;44.874;-1.092;2024-01-30T02:17:30;19.23;;;8.10;;
9783;SDS011;4931;44.874;-1.092;2024-01-30T02:19:55;25.08;;;8.73;;
9783;SDS011;4931;44.874;-1.092;2024-01-30T02:22:21;20.50;;;9.02;;
9783;SDS011;4931;44.874;-1.092;2024-01-30T02:24:47;20.08;;;8.45;;
9783;SDS011;4931;44.874;-1.092;2024-01-30T02:27:14;17.30;;;8.75;;
9783;SDS011;4931;44.874;-1.092;2024-01-30T02:29:39;22.00;;;8.32;;
9783;SDS011;4931;44.874;-1.092;2024-01-30T02:32:05;18.80;;;8.27;;
9783;SDS011;4931;44.874;-1.092;2024-01-30T02:34:31;20.10;;;8.52;;
9783;SDS011;4931;44.874;-1.092;2024-01-30T02:36:56;21.75;;;8.48;;
9783;SDS011;4931;44.874;-1.092;2024-01-30T02:39:22;18.10;;;8.27;;
9783;SDS011;4931;44.874;-1.092;2024-01-30T02:41:47;23.38;;;8.45;;
9783;SDS011;4931;44.874;-1.092;2024-01-30T02:44:13;18.17;;;7.63;;
9783;SDS011;4931;44.874;-1.092;2024-01-30T02:46:38;24.40;;;9.10;;
9783;SDS011;4931;44.874;-1.092;2024-01-30T02:49:03;22.42;;;8.45;;
9783;SDS011;4931;44.874;-1.092;2024-01-30T02:51:29;19.85;;;8.30;;
9783;SDS011;4931;44.874;-1.092;2024-01-30T02:53:54;16.40;;;8.77;;
9783;SDS011;4931;44.874;-1.092;2024-01-30T02:56:20;17.02;;;7.90;;
9783;SDS011;4931;44.874;-1.092;2024-01-30T02:58:45;20.02;;;9.20;;
9783;SDS011;4931;44.874;-1.092;2024-01-30T03:01:10;18.75;;;9.00;;
9783;SDS011;4931;44.874;-1.092;2024-01-30T03:03:36;21.88;;;8.55;;
9783;SDS011;4931;44.874;-1.092;2024-01-30T03:06:01;18.30;;;8.60;;
9783;SDS011;4931;44.874;-1.092;2024-01-30T03:08:27;18.38;;;9.20;;
9783;SDS011;4931;44.874;-1.092;2024-01-30T03:10:53;17.60;;;8.70;;
9783;SDS011;4931;44.874;-1.092;2024-01-30T03:13:18;18.38;;;8.63;;
9783;SDS011;4931;44.874;-1.092;2024-01-30T03:15:44;18.95;;;8.93;;
9783;SDS011;4931;44.874;-1.092;2024-01-30T03:18:09;20.00;;;8.48;;
9783;SDS011;4931;44.874;-1.092;2024-01-30T03:20:35;16.20;;;8.25;;
9783;SDS011;4931;44.874;-1.092;2024-01-30T03:23:00;17.27;;;8.13;;
9783;SDS011;4931;44.874;-1.092;2024-01-30T03:25:26;17.27;;;9.15;;
9783;SDS011;4931;44.874;-1.092;2024-01-30T03:27:51;19.38;;;8.57;;
9783;SDS011;4931;44.874;-1.092;2024-01-30T03:30:17;20.08;;;9.13;;
9783;SDS011;4931;44.874;-1.092;2024-01-30T03:32:43;20.65;;;9.70;;
9783;SDS011;4931;44.874;-1.092;2024-01-30T03:35:09;18.13;;;8.90;;
9783;SDS011;4931;44.874;-1.092;2024-01-30T03:37:34;23.27;;;10.10;;
9783;SDS011;4931;44.874;-1.092;2024-01-30T03:40:00;23.27;;;10.23;;
9783;SDS011;4931;44.874;-1.092;2024-01-30T03:42:27;18.85;;;8.73;;
9783;SDS011;4931;44.874;-1.092;2024-01-30T03:44:53;21.02;;;9.30;;
9783;SDS011;4931;44.874;-1.092;2024-01-30T03:47:18;23.20;;;9.23;;
9783;SDS011;4931;44.874;-1.092;2024-01-30T03:49:44;15.43;;;8.95;;
9783;SDS011;4931;44.874;-1.092;2024-01-30T03:52:10;17.38;;;8.73;;
9783;SDS011;4931;44.874;-1.092;2024-01-30T03:54:35;21.33;;;9.43;;
9783;SDS011;4931;44.874;-1.092;2024-01-30T03:57:01;19.88;;;9.25;;
9783;SDS011;4931;44.874;-1.092;2024-01-30T03:59:27;18.85;;;9.48;;
9783;SDS011;4931;44.874;-1.092;2024-01-30T04:01:55;21.83;;;9.65;;
9783;SDS011;4931;44.874;-1.092;2024-01-30T04:04:21;19.90;;;9.10;;
9783;SDS011;4931;44.874;-1.092;2024-01-30T04:06:46;20.83;;;9.88;;
9783;SDS011;4931;44.874;-1.092;2024-01-30T04:09:12;23.80;;;9.18;;
9783;SDS011;4931;44.874;-1.092;2024-01-30T04:11:38;25.50;;;9.65;;
9783;SDS011;4931;44.874;-1.092;2024-01-30T04:14:04;19.15;;;8.98;;
9783;SDS011;4931;44.874;-1.092;2024-01-30T04:16:30;21.67;;;9.05;;
9783;SDS011;4931;44.874;-1.092;2024-01-30T04:18:55;22.27;;;9.48;;
9783;SDS011;4931;44.874;-1.092;2024-01-30T04:21:21;21.13;;;9.57;;
9783;SDS011;4931;44.874;-1.092;2024-01-30T04:23:47;22.95;;;9.98;;
9783;SDS011;4931;44.874;-1.092;2024-01-30T04:26:13;16.58;;;9.85;;
9783;SDS011;4931;44.874;-1.092;2024-01-30T04:28:41;27.08;;;10.05;;
9783;SDS011;4931;44.874;-1.092;2024-01-30T04:31:06;20.45;;;9.68;;
9783;SDS011;4931;44.874;-1.092;2024-01-30T04:33:32;17.80;;;9.55;;
9783;SDS011;4931;44.874;-1.092;2024-01-30T04:35:57;18.85;;;9.73;;
9783;SDS011;4931;44.874;-1.092;2024-01-30T04:38:23;18.38;;;9.77;;
9783;SDS011;4931;44.874;-1.092;2024-01-30T04:40:48;22.50;;;10.05;;
9783;SDS011;4931;44.874;-1.092;2024-01-30T04:43:14;23.58;;;10.05;;
9783;SDS011;4931;44.874;-1.092;2024-01-30T04:45:40;19.67;;;9.85;;
9783;SDS011;4931;44.874;-1.092;2024-01-30T04:48:06;20.75;;;9.80;;
9783;SDS011;4931;44.874;-1.092;2024-01-30T04:50:32;21.17;;;9.95;;
9783;SDS011;4931;44.874;-1.092;2024-01-30T04:52:57;18.35;;;9.60;;
9783;SDS011;4931;44.874;-1.092;2024-01-30T04:55:23;25.73;;;10.70;;
9783;SDS011;4931;44.874;-1.092;2024-01-30T04:57:48;21.30;;;10.00;;
9783;SDS011;4931;44.874;-1.092;2024-01-30T05:00:14;23.85;;;10.45;;
9783;SDS011;4931;44.874;-1.092;2024-01-30T05:02:40;22.63;;;9.13;;
9783;SDS011;4931;44.874;-1.092;2024-01-30T05:05:05;20.63;;;10.02;;
9783;SDS011;4931;44.874;-1.092;2024-01-30T05:07:31;22.40;;;10.02;;
9783;SDS011;4931;44.874;-1.092;2024-01-30T05:09:56;20.88;;;9.43;;
9783;SDS011;4931;44.874;-1.092;2024-01-30T05:12:22;22.48;;;9.63;;
9783;SDS011;4931;44.874;-1.092;2024-01-30T05:14:47;21.65;;;10.10;;
9783;SDS011;4931;44.874;-1.092;2024-01-30T05:17:13;25.40;;;10.63;;
9783;SDS011;4931;44.874;-1.092;2024-01-30T05:19:38;22.70;;;10.75;;
9783;SDS011;4931;44.874;-1.092;2024-01-30T05:22:04;25.58;;;11.35;;
9783;SDS011;4931;44.874;-1.092;2024-01-30T05:24:29;25.25;;;12.02;;
9783;SDS011;4931;44.874;-1.092;2024-01-30T05:26:55;24.90;;;11.60;;
9783;SDS011;4931;44.874;-1.092;2024-01-30T05:29:20;25.40;;;10.88;;
9783;SDS011;4931;44.874;-1.092;2024-01-30T05:31:46;21.73;;;10.88;;
9783;SDS011;4931;44.874;-1.092;2024-01-30T05:34:11;18.17;;;10.30;;
9783;SDS011;4931;44.874;-1.092;2024-01-30T05:36:37;26.45;;;10.85;;
9783;SDS011;4931;44.874;-1.092;2024-01-30T05:39:02;22.85;;;10.60;;
9783;SDS011;4931;44.874;-1.092;2024-01-30T05:41:27;24.70;;;12.43;;
9783;SDS011;4931;44.874;-1.092;2024-01-30T05:43:53;25.80;;;14.05;;
9783;SDS011;4931;44.874;-1.092;2024-01-30T05:46:18;26.67;;;13.10;;
9783;SDS011;4931;44.874;-1.092;2024-01-30T05:48:44;27.08;;;13.68;;
9783;SDS011;4931;44.874;-1.092;2024-01-30T05:51:09;25.80;;;14.18;;
9783;SDS011;4931;44.874;-1.092;2024-01-30T05:53:35;28.88;;;14.00;;
9783;SDS011;4931;44.874;-1.092;2024-01-30T05:56:01;28.90;;;15.75;;
9783;SDS011;4931;44.874;-1.092;2024-01-30T05:58:27;24.27;;;13.60;;
9783;SDS011;4931;44.874;-1.092;2024-01-30T06:00:53;21.15;;;12.57;;
9783;SDS011;4931;44.874;-1.092;2024-01-30T06:03:18;28.77;;;18.00;;
9783;SDS011;4931;44.874;-1.092;2024-01-30T06:05:44;28.95;;;15.55;;
9783;SDS011;4931;44.874;-1.092;2024-01-30T06:08:09;28.05;;;15.13;;
9783;SDS011;4931;44.874;-1.092;2024-01-30T06:10:35;33.78;;;17.38;;
9783;SDS011;4931;44.874;-1.092;2024-01-30T06:13:00;29.80;;;17.08;;
9783;SDS011;4931;44.874;-1.092;2024-01-30T06:15:26;51.85;;;27.70;;
9783;SDS011;4931;44.874;-1.092;2024-01-30T06:17:52;46.78;;;23.80;;
9783;SDS011;4931;44.874;-1.092;2024-01-30T06:20:17;40.58;;;21.80;;
9783;SDS011;4931;44.874;-1.092;2024-01-30T06:22:43;32.55;;;16.20;;
9783;SDS011;4931;44.874;-1.092;2024-01-30T06:25:08;29.67;;;14.65;;
9783;SDS011;4931;44.874;-1.092;2024-01-30T06:27:35;25.77;;;13.57;;
9783;SDS011;4931;44.874;-1.092;2024-01-30T06:30:00;31.67;;;13.95;;
9783;SDS011;4931;44.874;-1.092;2024-01-30T06:32:26;31.73;;;15.93;;
9783;SDS011;4931;44.874;-1.092;2024-01-30T06:34:53;36.97;;;19.30;;
9783;SDS011;4931;44.874;-1.092;2024-01-30T06:37:19;30.48;;;16.60;;
9783;SDS011;4931;44.874;-1.092;2024-01-30T06:39:44;25.45;;;14.20;;
9783;SDS011;4931;44.874;-1.092;2024-01-30T06:42:10;28.75;;;13.93;;
9783;SDS011;4931;44.874;-1.092;2024-01-30T06:44:36;32.15;;;16.30;;
9783;SDS011;4931;44.874;-1.092;2024-01-30T06:47:02;32.25;;;17.48;;
9783;SDS011;4931;44.874;-1.092;2024-01-30T06:49:27;27.85;;;16.13;;
9783;SDS011;4931;44.874;-1.092;2024-01-30T06:51:53;20.23;;;13.27;;
9783;SDS011;4931;44.874;-1.092;2024-01-30T06:54:18;25.25;;;13.63;;
9783;SDS011;4931;44.874;-1.092;2024-01-30T06:56:44;36.33;;;18.13;;
9783;SDS011;4931;44.874;-1.092;2024-01-30T06:59:09;33.35;;;19.05;;
9783;SDS011;4931;44.874;-1.092;2024-01-30T07:01:34;32.58;;;17.10;;
9783;SDS011;4931;44.874;-1.092;2024-01-30T07:04:00;34.05;;;17.08;;
9783;SDS011;4931;44.874;-1.092;2024-01-30T07:06:25;29.95;;;16.52;;
9783;SDS011;4931;44.874;-1.092;2024-01-30T07:08:51;30.52;;;16.05;;
9783;SDS011;4931;44.874;-1.092;2024-01-30T07:11:20;29.25;;;15.63;;
9783;SDS011;4931;44.874;-1.092;2024-01-30T07:13:47;31.38;;;17.70;;
9783;SDS011;4931;44.874;-1.092;2024-01-30T07:16:13;30.73;;;16.88;;
9783;SDS011;4931;44.874;-1.092;2024-01-30T07:18:39;28.52;;;15.48;;
9783;SDS011;4931;44.874;-1.092;2024-01-30T07:21:04;30.45;;;16.25;;
9783;SDS011;4931;44.874;-1.092;2024-01-30T07:23:30;25.95;;;15.75;;
9783;SDS011;4931;44.874;-1.092;2024-01-30T07:25:55;27.08;;;15.65;;
9783;SDS011;4931;44.874;-1.092;2024-01-30T07:28:21;32.72;;;17.02;;
9783;SDS011;4931;44.874;-1.092;2024-01-30T07:30:46;26.35;;;15.32;;
9783;SDS011;4931;44.874;-1.092;2024-01-30T07:33:13;24.60;;;14.13;;
9783;SDS011;4931;44.874;-1.092;2024-01-30T07:35:39;26.45;;;14.70;;
9783;SDS011;4931;44.874;-1.092;2024-01-30T07:38:04;35.33;;;22.15;;
9783;SDS011;4931;44.874;-1.092;2024-01-30T07:40:29;37.40;;;21.77;;
9783;SDS011;4931;44.874;-1.092;2024-01-30T07:42:55;30.45;;;17.33;;
9783;SDS011;4931;44.874;-1.092;2024-01-30T07:45:20;27.23;;;16.13;;
9783;SDS011;4931;44.874;-1.092;2024-01-30T07:47:50;31.52;;;16.52;;
9783;SDS011;4931;44.874;-1.092;2024-01-30T07:50:16;43.50;;;21.08;;
9783;SDS011;4931;44.874;-1.092;2024-01-30T07:52:42;35.55;;;20.88;;
9783;SDS011;4931;44.874;-1.092;2024-01-30T07:55:08;31.60;;;17.20;;
9783;SDS011;4931;44.874;-1.092;2024-01-30T07:57:34;28.58;;;17.48;;
9783;SDS011;4931;44.874;-1.092;2024-01-30T08:00:00;28.45;;;15.90;;
9783;SDS011;4931;44.874;-1.092;2024-01-30T08:02:26;25.65;;;14.20;;
9783;SDS011;4931;44.874;-1.092;2024-01-30T08:04:51;21.30;;;13.25;;
9783;SDS011;4931;44.874;-1.092;2024-01-30T08:07:16;28.23;;;14.35;;
9783;SDS011;4931;44.874;-1.092;2024-01-30T08:09:47;30.70;;;16.13;;
9783;SDS011;4931;44.874;-1.092;2024-01-30T08:12:12;27.77;;;16.83;;
9783;SDS011;4931;44.874;-1.092;2024-01-30T08:14:38;37.30;;;19.77;;
9783;SDS011;4931;44.874;-1.092;2024-01-30T08:17:04;34.60;;;19.02;;
9783;SDS011;4931;44.874;-1.092;2024-01-30T08:19:30;32.33;;;16.73;;
9783;SDS011;4931;44.874;-1.092;2024-01-30T08:21:55;29.23;;;16.60;;
9783;SDS011;4931;44.874;-1.092;2024-01-30T08:24:21;30.50;;;17.27;;
9783;SDS011;4931;44.874;-1.092;2024-01-30T08:26:46;25.77;;;15.80;;
9783;SDS011;4931;44.874;-1.092;2024-01-30T08:29:12;28.05;;;15.43;;
9783;SDS011;4931;44.874;-1.092;2024-01-30T08:31:37;45.67;;;21.33;;
9783;SDS011;4931;44.874;-1.092;2024-01-30T08:34:02;49.08;;;23.70;;
9783;SDS011;4931;44.874;-1.092;2024-01-30T08:36:28;41.83;;;21.02;;
9783;SDS011;4931;44.874;-1.092;2024-01-30T08:38:53;32.75;;;17.05;;
9783;SDS011;4931;44.874;-1.092;2024-01-30T08:41:19;37.22;;;21.13;;
9783;SDS011;4931;44.874;-1.092;2024-01-30T08:43:45;42.72;;;24.65;;
9783;SDS011;4931;44.874;-1.092;2024-01-30T08:46:10;31.60;;;17.67;;
9783;SDS011;4931;44.874;-1.092;2024-01-30T08:48:36;33.85;;;20.30;;
9783;SDS011;4931;44.874;-1.092;2024-01-30T08:51:01;32.42;;;18.27;;
9783;SDS011;4931;44.874;-1.092;2024-01-30T08:53:27;34.42;;;18.70;;
9783;SDS011;4931;44.874;-1.092;2024-01-30T08:55:52;36.90;;;20.95;;
9783;SDS011;4931;44.874;-1.092;2024-01-30T08:58:18;30.52;;;19.30;;
9783;SDS011;4931;44.874;-1.092;2024-01-30T09:00:44;30.80;;;18.17;;
9783;SDS011;4931;44.874;-1.092;2024-01-30T09:03:09;24.67;;;14.93;;
9783;SDS011;4931;44.874;-1.092;2024-01-30T09:05:35;30.90;;;18.02;;
9783;SDS011;4931;44.874;-1.092;2024-01-30T09:08:00;28.92;;;17.48;;
9783;SDS011;4931;44.874;-1.092;2024-01-30T09:10:26;30.38;;;20.00;;
9783;SDS011;4931;44.874;-1.092;2024-01-30T09:12:51;31.50;;;17.67;;
9783;SDS011;4931;44.874;-1.092;2024-01-30T09:15:17;27.40;;;15.80;;
9783;SDS011;4931;44.874;-1.092;2024-01-30T09:17:44;33.10;;;14.77;;
9783;SDS011;4931;44.874;-1.092;2024-01-30T09:20:09;30.83;;;14.07;;
9783;SDS011;4931;44.874;-1.092;2024-01-30T09:22:35;27.13;;;15.55;;
9783;SDS011;4931;44.874;-1.092;2024-01-30T09:25:00;29.80;;;18.85;;
9783;SDS011;4931;44.874;-1.092;2024-01-30T09:27:26;29.65;;;21.63;;
9783;SDS011;4931;44.874;-1.092;2024-01-30T09:29:51;30.70;;;18.85;;
9783;SDS011;4931;44.874;-1.092;2024-01-30T09:32:17;24.25;;;14.05;;
9783;SDS011;4931;44.874;-1.092;2024-01-30T09:34:43;23.80;;;14.43;;
9783;SDS011;4931;44.874;-1.092;2024-01-30T09:37:09;27.33;;;13.95;;
9783;SDS011;4931;44.874;-1.092;2024-01-30T09:39:34;37.25;;;23.88;;
9783;SDS011;4931;44.874;-1.092;2024-01-30T09:44:40;29.75;;;16.80;;
9783;SDS011;4931;44.874;-1.092;2024-01-30T09:47:08;24.67;;;14.45;;
9783;SDS011;4931;44.874;-1.092;2024-01-30T09:49:35;36.15;;;13.98;;
9783;SDS011;4931;44.874;-1.092;2024-01-30T09:52:02;24.83;;;13.45;;
9783;SDS011;4931;44.874;-1.092;2024-01-30T09:54:30;28.63;;;13.73;;
9783;SDS011;4931;44.874;-1.092;2024-01-30T09:56:56;26.52;;;14.77;;
9783;SDS011;4931;44.874;-1.092;2024-01-30T09:59:22;25.88;;;12.30;;
9783;SDS011;4931;44.874;-1.092;2024-01-30T10:01:48;20.10;;;11.95;;
9783;SDS011;4931;44.874;-1.092;2024-01-30T10:04:15;27.65;;;12.45;;
9783;SDS011;4931;44.874;-1.092;2024-01-30T10:06:41;23.42;;;12.18;;
9783;SDS011;4931;44.874;-1.092;2024-01-30T10:09:07;25.58;;;12.43;;
9783;SDS011;4931;44.874;-1.092;2024-01-30T10:11:33;25.45;;;12.63;;
9783;SDS011;4931;44.874;-1.092;2024-01-30T10:14:00;25.33;;;15.00;;
9783;SDS011;4931;44.874;-1.092;2024-01-30T10:16:25;26.25;;;13.60;;
9783;SDS011;4931;44.874;-1.092;2024-01-30T10:18:51;25.55;;;15.13;;
9783;SDS011;4931;44.874;-1.092;2024-01-30T10:21:16;23.48;;;13.55;;
9783;SDS011;4931;44.874;-1.092;2024-01-30T10:23:43;24.33;;;12.80;;
9783;SDS011;4931;44.874;-1.092;2024-01-30T10:26:09;25.23;;;13.48;;
9783;SDS011;4931;44.874;-1.092;2024-01-30T10:28:35;25.17;;;11.20;;
9783;SDS011;4931;44.874;-1.092;2024-01-30T10:31:00;24.50;;;14.02;;
9783;SDS011;4931;44.874;-1.092;2024-01-30T10:33:26;28.00;;;12.88;;
9783;SDS011;4931;44.874;-1.092;2024-01-30T10:35:56;23.50;;;11.93;;
9783;SDS011;4931;44.874;-1.092;2024-01-30T10:38:28;22.70;;;12.75;;
9783;SDS011;4931;44.874;-1.092;2024-01-30T10:40:56;27.60;;;13.05;;
9783;SDS011;4931;44.874;-1.092;2024-01-30T10:43:22;31.20;;;12.95;;
9783;SDS011;4931;44.874;-1.092;2024-01-30T10:45:49;27.88;;;12.13;;
9783;SDS011;4931;44.874;-1.092;2024-01-30T10:48:18;23.90;;;11.57;;
9783;SDS011;4931;44.874;-1.092;2024-01-30T10:50:50;26.10;;;12.77;;
9783;SDS011;4931;44.874;-1.092;2024-01-30T10:53:16;31.10;;;15.73;;
9783;SDS011;4931;44.874;-1.092;2024-01-30T10:55:43;25.75;;;13.85;;
9783;SDS011;4931;44.874;-1.092;2024-01-30T10:58:11;24.20;;;12.70;;
9783;SDS011;4931;44.874;-1.092;2024-01-30T11:00:38;23.95;;;11.95;;
9783;SDS011;4931;44.874;-1.092;2024-01-30T11:03:04;23.85;;;11.75;;
9783;SDS011;4931;44.874;-1.092;2024-01-30T11:05:30;24.48;;;11.65;;
9783;SDS011;4931;44.874;-1.092;2024-01-30T11:07:55;21.83;;;12.25;;
9783;SDS011;4931;44.874;-1.092;2024-01-30T11:10:21;23.83;;;11.93;;
9783;SDS011;4931;44.874;-1.092;2024-01-30T11:12:50;20.88;;;12.07;;
9783;SDS011;4931;44.874;-1.092;2024-01-30T11:15:16;25.25;;;12.15;;
9783;SDS011;4931;44.874;-1.092;2024-01-30T11:20:35;26.02;;;11.45;;
9783;SDS011;4931;44.874;-1.092;2024-01-30T11:23:00;18.80;;;10.32;;
9783;SDS011;4931;44.874;-1.092;2024-01-30T11:25:32;24.02;;;11.60;;
9783;SDS011;4931;44.874;-1.092;2024-01-30T11:27:58;22.80;;;11.18;;
9783;SDS011;4931;44.874;-1.092;2024-01-30T11:30:27;20.58;;;10.55;;
9783;SDS011;4931;44.874;-1.092;2024-01-30T11:35:36;23.77;;;12.73;;
9783;SDS011;4931;44.874;-1.092;2024-01-30T11:38:02;22.35;;;11.05;;
9783;SDS011;4931;44.874;-1.092;2024-01-30T11:40:30;20.70;;;10.10;;
9783;SDS011;4931;44.874;-1.092;2024-01-30T11:42:56;22.63;;;10.52;;
9783;SDS011;4931;44.874;-1.092;2024-01-30T11:45:23;23.25;;;10.13;;
9783;SDS011;4931;44.874;-1.092;2024-01-30T11:47:49;16.55;;;9.40;;
9783;SDS011;4931;44.874;-1.092;2024-01-30T11:50:14;20.83;;;9.98;;
9783;SDS011;4931;44.874;-1.092;2024-01-30T11:52:40;17.00;;;9.23;;
9783;SDS011;4931;44.874;-1.092;2024-01-30T11:55:07;21.52;;;9.88;;
9783;SDS011;4931;44.874;-1.092;2024-01-30T11:57:33;28.80;;;9.38;;
9783;SDS011;4931;44.874;-1.092;2024-01-30T12:00:00;21.33;;;8.73;;
9783;SDS011;4931;44.874;-1.092;2024-01-30T12:02:26;19.58;;;8.98;;
9783;SDS011;4931;44.874;-1.092;2024-01-30T12:04:52;18.80;;;9.45;;
9783;SDS011;4931;44.874;-1.092;2024-01-30T12:07:17;19.33;;;8.27;;
9783;SDS011;4931;44.874;-1.092;2024-01-30T12:09:51;20.25;;;7.90;;
9783;SDS011;4931;44.874;-1.092;2024-01-30T12:12:17;17.17;;;7.75;;
9783;SDS011;4931;44.874;-1.092;2024-01-30T12:14:43;18.20;;;7.93;;
9783;SDS011;4931;44.874;-1.092;2024-01-30T12:17:08;18.17;;;7.45;;
9783;SDS011;4931;44.874;-1.092;2024-01-30T12:19:34;20.13;;;7.90;;
9783;SDS011;4931;44.874;-1.092;2024-01-30T12:22:00;21.45;;;9.38;;
9783;SDS011;4931;44.874;-1.092;2024-01-30T12:24:25;14.77;;;7.10;;
9783;SDS011;4931;44.874;-1.092;2024-01-30T12:26:52;18.23;;;8.30;;
9783;SDS011;4931;44.874;-1.092;2024-01-30T12:29:19;15.77;;;7.78;;
9783;SDS011;4931;44.874;-1.092;2024-01-30T12:31:45;15.52;;;8.07;;
9783;SDS011;4931;44.874;-1.092;2024-01-30T12:34:13;18.35;;;7.35;;
9783;SDS011;4931;44.874;-1.092;2024-01-30T12:36:40;14.00;;;7.30;;
9783;SDS011;4931;44.874;-1.092;2024-01-30T12:39:06;20.88;;;7.57;;
9783;SDS011;4931;44.874;-1.092;2024-01-30T12:41:31;17.40;;;7.10;;
9783;SDS011;4931;44.874;-1.092;2024-01-30T12:43:57;18.17;;;7.43;;
9783;SDS011;4931;44.874;-1.092;2024-01-30T12:46:29;14.95;;;7.25;;
9783;SDS011;4931;44.874;-1.092;2024-01-30T12:48:54;13.63;;;7.38;;
9783;SDS011;4931;44.874;-1.092;2024-01-30T12:51:20;18.02;;;7.50;;
9783;SDS011;4931;44.874;-1.092;2024-01-30T12:53:45;15.82;;;8.05;;
9783;SDS011;4931;44.874;-1.092;2024-01-30T12:56:12;16.73;;;7.47;;
9783;SDS011;4931;44.874;-1.092;2024-01-30T12:58:39;17.98;;;7.90;;
9783;SDS011;4931;44.874;-1.092;2024-01-30T13:01:05;12.18;;;7.32;;
9783;SDS011;4931;44.874;-1.092;2024-01-30T13:03:30;15.18;;;7.60;;
9783;SDS011;4931;44.874;-1.092;2024-01-30T13:05:56;14.85;;;6.88;;
9783;SDS011;4931;44.874;-1.092;2024-01-30T13:08:21;14.75;;;7.38;;
9783;SDS011;4931;44.874;-1.092;2024-01-30T13:10:47;13.20;;;7.72;;
9783;SDS011;4931;44.874;-1.092;2024-01-30T13:13:12;14.55;;;7.40;;
9783;SDS011;4931;44.874;-1.092;2024-01-30T13:15:37;19.95;;;7.78;;
9783;SDS011;4931;44.874;-1.092;2024-01-30T13:18:03;14.75;;;7.28;;
9783;SDS011;4931;44.874;-1.092;2024-01-30T13:20:30;15.80;;;7.47;;
9783;SDS011;4931;44.874;-1.092;2024-01-30T13:22:55;15.18;;;7.25;;
9783;SDS011;4931;44.874;-1.092;2024-01-30T13:25:21;15.48;;;7.97;;
9783;SDS011;4931;44.874;-1.092;2024-01-30T13:27:46;14.18;;;7.30;;
9783;SDS011;4931;44.874;-1.092;2024-01-30T13:30:12;22.02;;;9.05;;
9783;SDS011;4931;44.874;-1.092;2024-01-30T13:32:37;16.30;;;7.43;;
9783;SDS011;4931;44.874;-1.092;2024-01-30T13:35:03;15.77;;;7.65;;
9783;SDS011;4931;44.874;-1.092;2024-01-30T13:37:29;15.63;;;7.72;;
9783;SDS011;4931;44.874;-1.092;2024-01-30T13:39:55;14.13;;;7.85;;
9783;SDS011;4931;44.874;-1.092;2024-01-30T13:42:21;16.65;;;7.97;;
9783;SDS011;4931;44.874;-1.092;2024-01-30T13:44:48;16.52;;;7.88;;
9783;SDS011;4931;44.874;-1.092;2024-01-30T13:47:13;15.07;;;7.65;;
9783;SDS011;4931;44.874;-1.092;2024-01-30T13:49:39;15.32;;;7.55;;
9783;SDS011;4931;44.874;-1.092;2024-01-30T13:52:04;15.02;;;7.80;;
9783;SDS011;4931;44.874;-1.092;2024-01-30T13:54:30;19.75;;;7.72;;
9783;SDS011;4931;44.874;-1.092;2024-01-30T13:56:55;19.20;;;7.95;;
9783;SDS011;4931;44.874;-1.092;2024-01-30T13:59:22;16.30;;;7.47;;
9783;SDS011;4931;44.874;-1.092;2024-01-30T14:01:49;17.48;;;8.30;;
9783;SDS011;4931;44.874;-1.092;2024-01-30T14:04:15;16.40;;;7.55;;
9783;SDS011;4931;44.874;-1.092;2024-01-30T14:06:41;14.77;;;7.88;;
9783;SDS011;4931;44.874;-1.092;2024-01-30T14:09:06;16.00;;;8.35;;
9783;SDS011;4931;44.874;-1.092;2024-01-30T14:11:32;20.60;;;8.00;;
9783;SDS011;4931;44.874;-1.092;2024-01-30T14:13:57;16.92;;;7.68;;
9783;SDS011;4931;44.874;-1.092;2024-01-30T14:16:23;15.55;;;8.07;;
9783;SDS011;4931;44.874;-1.092;2024-01-30T14:18:49;18.50;;;8.23;;
9783;SDS011;4931;44.874;-1.092;2024-01-30T14:21:15;15.25;;;7.45;;
9783;SDS011;4931;44.874;-1.092;2024-01-30T14:23:40;17.08;;;7.95;;
9783;SDS011;4931;44.874;-1.092;2024-01-30T14:26:06;17.67;;;7.82;;
9783;SDS011;4931;44.874;-1.092;2024-01-30T14:28:31;18.70;;;7.90;;
9783;SDS011;4931;44.874;-1.092;2024-01-30T14:30:57;18.65;;;7.68;;
9783;SDS011;4931;44.874;-1.092;2024-01-30T14:33:22;15.02;;;7.55;;
9783;SDS011;4931;44.874;-1.092;2024-01-30T14:35:48;17.75;;;7.93;;
9783;SDS011;4931;44.874;-1.092;2024-01-30T14:38:13;14.45;;;7.78;;
9783;SDS011;4931;44.874;-1.092;2024-01-30T14:40:39;20.63;;;8.18;;